Cory, Colorado
Current Conditions -  °F | °C
As of 9:15 AM on Saturday 25 Oct 2014 (Local Time) from KAJZ Reporting Station
Clear Clear  
Wind Chill: 48°   Ceiling: Unl
Heat Index: 48°   Visibility: 10mi
Dew Point: 31°   Wind: 0mph
Humidity: 51%   Direction: NA
Pressure: 30.33"   Gusts: NA
Location:  38.79°N, 107.99°W
Report Text: KAJZ 251515Z AUTO 00000KT 10SM CLR 09/00 A3033 RMK AO2 T00911005
Loading
Personal Weather Stations






























Interactive Weather Map
Tropical Storm Tracking
New forecast layout! Learn more

10-Day Weather Forecast

Advertisements
Track Severe Weather on mobile